createdAt,value
2019-03-27T00:00:24.324Z,6.30
2019-03-27T00:02:54.611Z,6.30
2019-03-27T00:05:25.883Z,6.30
2019-03-27T00:07:57.122Z,6.30
2019-03-27T00:10:27.351Z,6.30
2019-03-27T00:12:57.704Z,6.30
2019-03-27T00:15:27.959Z,6.30
2019-03-27T00:17:58.199Z,6.30
2019-03-27T00:20:28.543Z,6.30
2019-03-27T00:22:58.794Z,6.30
2019-03-27T00:25:29.047Z,6.30
2019-03-27T00:27:59.338Z,6.30
2019-03-27T00:30:29.668Z,6.30
2019-03-27T00:32:59.865Z,6.30
2019-03-27T00:35:30.136Z,6.30
2019-03-27T00:38:00.550Z,6.30
2019-03-27T00:40:30.896Z,6.40
2019-03-27T00:43:01.470Z,6.30
2019-03-27T00:45:31.703Z,6.30
2019-03-27T00:48:02.040Z,6.40
2019-03-27T00:50:32.322Z,6.30
2019-03-27T00:53:02.555Z,6.30
2019-03-27T00:55:32.881Z,6.30
2019-03-27T00:58:03.059Z,6.30
2019-03-27T01:01:14.237Z,6.30
2019-03-27T01:03:44.651Z,6.30
2019-03-27T01:06:14.995Z,6.30
2019-03-27T01:08:45.326Z,6.30
2019-03-27T01:11:15.571Z,6.30
2019-03-27T01:13:45.779Z,6.30
2019-03-27T01:16:16.012Z,6.30
2019-03-27T01:18:46.461Z,6.30
2019-03-27T01:21:16.655Z,6.30
2019-03-27T01:23:46.869Z,6.30
2019-03-27T01:26:17.179Z,6.30
2019-03-27T01:28:47.452Z,6.40
2019-03-27T01:31:17.671Z,6.30
2019-03-27T01:33:47.918Z,6.30
2019-03-27T01:36:18.234Z,6.30
2019-03-27T01:38:48.437Z,6.30
2019-03-27T01:41:18.622Z,6.30
2019-03-27T01:43:48.859Z,6.30
2019-03-27T01:46:20.235Z,6.30
2019-03-27T01:48:50.463Z,6.30
2019-03-27T01:51:20.660Z,6.30
2019-03-27T01:53:50.901Z,6.30
2019-03-27T01:56:21.099Z,6.30
2019-03-27T01:58:51.324Z,6.30
2019-03-27T02:01:21.563Z,6.30
2019-03-27T02:03:51.775Z,6.30
2019-03-27T02:06:22.347Z,6.30
2019-03-27T02:08:52.619Z,6.30
2019-03-27T02:11:22.828Z,6.30
2019-03-27T02:13:53.244Z,6.30
2019-03-27T02:16:23.491Z,6.30
2019-03-27T02:18:53.731Z,6.30
2019-03-27T02:21:24.461Z,6.30
2019-03-27T02:23:54.667Z,6.30
2019-03-27T02:26:24.946Z,6.30
2019-03-27T02:28:56.201Z,6.30
2019-03-27T02:31:26.452Z,6.30
2019-03-27T02:33:56.699Z,6.30
2019-03-27T02:36:26.896Z,6.30
2019-03-27T02:38:57.204Z,6.30
2019-03-27T02:41:27.494Z,6.30
2019-03-27T02:43:57.679Z,6.30
2019-03-27T02:46:27.902Z,6.30
2019-03-27T02:48:58.137Z,6.30
2019-03-27T02:51:28.330Z,6.30
2019-03-27T02:53:58.586Z,6.30
2019-03-27T02:56:28.814Z,6.30
2019-03-27T02:58:59.047Z,6.30
2019-03-27T03:01:29.391Z,6.30
2019-03-27T03:03:59.675Z,6.30
2019-03-27T03:06:29.867Z,6.30
2019-03-27T03:09:00.108Z,6.30
2019-03-27T03:11:30.576Z,6.30
2019-03-27T03:14:00.861Z,6.40
2019-03-27T03:16:42.191Z,6.40
2019-03-27T03:19:02.995Z,6.30
2019-03-27T03:21:33.232Z,6.30
2019-03-27T03:24:03.447Z,6.30
2019-03-27T03:26:33.680Z,6.30
2019-03-27T03:29:03.920Z,6.30
2019-03-27T03:31:34.176Z,6.30
2019-03-27T03:34:05.391Z,6.30
2019-03-27T03:36:35.720Z,6.30
2019-03-27T03:39:07.072Z,6.30
2019-03-27T03:41:37.364Z,6.30
2019-03-27T03:44:07.630Z,6.30
2019-03-27T03:46:37.829Z,6.30
2019-03-27T03:49:08.086Z,6.30
2019-03-27T03:51:38.351Z,6.40
2019-03-27T03:54:08.861Z,6.40
2019-03-27T03:56:42.335Z,6.40
2019-03-27T03:59:13.529Z,6.40
2019-03-27T04:01:45.074Z,6.40
2019-03-27T04:04:17.186Z,6.40
2019-03-27T04:06:47.376Z,6.40
2019-03-27T04:09:17.639Z,6.40
2019-03-27T04:11:47.845Z,6.40
2019-03-27T04:14:18.177Z,6.40
2019-03-27T04:16:48.391Z,6.40
2019-03-27T04:19:18.722Z,6.40
2019-03-27T04:21:49.235Z,6.40
2019-03-27T04:24:19.457Z,6.40
2019-03-27T04:26:49.674Z,6.30
2019-03-27T04:29:20.056Z,6.40
2019-03-27T04:31:50.212Z,6.40
2019-03-27T04:34:20.442Z,6.40
2019-03-27T04:36:50.647Z,6.30
2019-03-27T04:39:20.918Z,6.30
2019-03-27T04:41:51.286Z,6.30
2019-03-27T04:44:21.547Z,6.40
2019-03-27T04:46:51.745Z,6.30
2019-03-27T04:49:21.983Z,6.30
2019-03-27T04:51:52.219Z,6.30
2019-03-27T04:54:22.394Z,6.30
2019-03-27T04:56:52.762Z,6.30
2019-03-27T04:59:23.050Z,6.30
2019-03-27T05:01:53.307Z,6.30
2019-03-27T05:04:24.194Z,6.40
2019-03-27T05:06:54.533Z,6.40
2019-03-27T05:09:25.123Z,6.40
2019-03-27T05:11:55.390Z,6.40
2019-03-27T05:14:25.622Z,6.30
2019-03-27T05:16:55.862Z,6.40
2019-03-27T05:19:26.090Z,6.40
2019-03-27T05:21:59.389Z,6.40
2019-03-27T05:24:29.590Z,6.40
2019-03-27T05:26:59.928Z,6.40
2019-03-27T05:29:30.174Z,6.40
2019-03-27T05:32:00.348Z,6.40
2019-03-27T05:34:30.511Z,6.40
2019-03-27T05:37:00.703Z,6.40
2019-03-27T05:39:30.965Z,6.40
2019-03-27T05:42:01.143Z,6.50
2019-03-27T05:44:31.316Z,6.50
2019-03-27T05:47:01.536Z,6.50
2019-03-27T05:49:31.795Z,6.50
2019-03-27T05:52:01.980Z,6.60
2019-03-27T05:54:32.227Z,6.60
2019-03-27T05:57:02.427Z,6.60
2019-03-27T05:59:32.582Z,6.60
2019-03-27T06:02:02.763Z,6.60
2019-03-27T06:04:33.192Z,6.60
2019-03-27T06:07:03.368Z,6.60
2019-03-27T06:09:33.544Z,6.60
2019-03-27T06:12:03.759Z,6.60
2019-03-27T06:14:33.927Z,6.60
2019-03-27T06:17:04.139Z,6.60
2019-03-27T06:19:34.319Z,6.60
2019-03-27T06:22:05.708Z,6.60
2019-03-27T06:24:35.876Z,6.60
2019-03-27T06:27:06.075Z,6.60
2019-03-27T06:29:36.255Z,6.60
2019-03-27T06:32:06.459Z,6.60
2019-03-27T06:34:36.635Z,6.70
2019-03-27T06:37:06.831Z,6.70
2019-03-27T06:39:37.000Z,6.70
2019-03-27T06:42:07.193Z,6.60
2019-03-27T06:44:37.343Z,6.70
2019-03-27T06:47:07.548Z,6.70
2019-03-27T06:49:37.740Z,6.70
2019-03-27T06:52:08.035Z,6.80
2019-03-27T06:54:38.220Z,6.80
2019-03-27T06:57:08.451Z,6.80
2019-03-27T06:59:38.631Z,6.80
2019-03-27T07:02:08.883Z,6.90
2019-03-27T07:04:39.059Z,6.90
2019-03-27T07:07:09.230Z,6.90
2019-03-27T07:09:42.358Z,6.90
2019-03-27T07:12:20.904Z,7.00
2019-03-27T07:14:43.284Z,7.00
2019-03-27T07:17:13.877Z,7.00
2019-03-27T07:19:44.135Z,7.00
2019-03-27T07:22:14.375Z,7.00
2019-03-27T07:24:44.547Z,7.00
2019-03-27T07:27:14.840Z,7.00
2019-03-27T07:29:45.012Z,7.00
2019-03-27T07:32:15.218Z,7.00
2019-03-27T07:34:45.415Z,7.00
2019-03-27T07:37:15.579Z,7.00
2019-03-27T07:39:45.798Z,7.10
2019-03-27T07:42:16.035Z,7.10
2019-03-27T07:44:46.296Z,7.10
2019-03-27T07:47:16.787Z,7.10
2019-03-27T07:49:46.988Z,7.20
2019-03-27T07:52:17.155Z,7.20
2019-03-27T07:54:47.402Z,7.20
2019-03-27T07:57:17.572Z,7.20
2019-03-27T07:59:47.731Z,7.20
2019-03-27T08:02:17.899Z,7.20
2019-03-27T08:04:48.089Z,7.30
2019-03-27T08:07:26.770Z,7.30
2019-03-27T08:09:50.179Z,7.30
2019-03-27T08:12:21.425Z,7.40
2019-03-27T08:14:52.029Z,7.40
2019-03-27T08:17:22.190Z,7.40
2019-03-27T08:19:52.397Z,7.40
2019-03-27T08:22:22.627Z,7.40
2019-03-27T08:24:52.839Z,7.40
2019-03-27T08:27:23.212Z,7.40
2019-03-27T08:29:53.504Z,7.40
2019-03-27T08:32:23.763Z,7.40
2019-03-27T08:34:53.928Z,7.50
2019-03-27T08:37:24.103Z,7.50
2019-03-27T08:39:54.374Z,7.50
2019-03-27T08:42:24.611Z,7.50
2019-03-27T08:44:54.842Z,7.60
2019-03-27T08:47:25.043Z,7.60
2019-03-27T08:49:55.215Z,7.60
2019-03-27T08:52:25.415Z,7.60
2019-03-27T08:54:55.640Z,7.60
2019-03-27T08:57:25.856Z,7.60
2019-03-27T08:59:56.040Z,7.60
2019-03-27T09:02:26.263Z,7.60
2019-03-27T09:04:57.468Z,7.60
2019-03-27T09:07:27.642Z,7.70
2019-03-27T09:09:57.818Z,7.70
2019-03-27T09:12:28.073Z,7.70
2019-03-27T09:14:58.255Z,7.70
2019-03-27T09:17:28.439Z,7.70
2019-03-27T09:19:58.602Z,7.70
2019-03-27T09:22:28.847Z,7.70
2019-03-27T09:24:59.317Z,7.80
2019-03-27T09:27:29.502Z,7.80
2019-03-27T09:29:59.775Z,7.80
2019-03-27T09:32:29.975Z,7.80
2019-03-27T09:35:00.357Z,7.80
2019-03-27T09:37:30.654Z,7.80
2019-03-27T09:40:00.888Z,7.80
2019-03-27T09:42:32.042Z,7.80
2019-03-27T09:45:02.213Z,7.90
2019-03-27T09:47:34.599Z,7.90
2019-03-27T09:50:04.539Z,8.00
2019-03-27T09:52:34.716Z,8.00
2019-03-27T09:55:06.003Z,8.00
2019-03-27T09:57:36.183Z,8.10
2019-03-27T10:00:08.028Z,8.10
2019-03-27T10:02:38.279Z,8.20
2019-03-27T10:05:08.712Z,8.20
2019-03-27T10:07:38.927Z,8.20
2019-03-27T10:10:09.281Z,8.20
2019-03-27T10:12:39.471Z,8.20
2019-03-27T10:15:10.173Z,8.30
2019-03-27T10:17:40.381Z,8.30
2019-03-27T10:20:13.567Z,8.30
2019-03-27T10:22:42.759Z,8.30
2019-03-27T10:25:13.212Z,8.30
2019-03-27T10:27:43.410Z,8.30
2019-03-27T10:30:13.883Z,8.30
2019-03-27T10:32:44.058Z,8.30
2019-03-27T10:35:14.419Z,8.30
2019-03-27T10:37:44.604Z,8.40
2019-03-27T10:40:14.973Z,8.40
2019-03-27T10:42:45.172Z,8.30
2019-03-27T10:45:15.528Z,8.40
2019-03-27T10:47:45.708Z,8.40
2019-03-27T10:50:17.978Z,8.30
2019-03-27T10:52:47.988Z,8.30
2019-03-27T10:55:18.257Z,8.30
2019-03-27T10:57:48.507Z,8.40
2019-03-27T11:00:18.755Z,8.40
2019-03-27T11:02:50.585Z,8.40
2019-03-27T11:05:20.838Z,8.50
2019-03-27T11:07:51.011Z,8.50
2019-03-27T11:10:21.330Z,8.50
2019-03-27T11:12:51.505Z,8.60
2019-03-27T11:15:21.851Z,8.60
2019-03-27T11:17:52.039Z,8.70
2019-03-27T11:20:30.885Z,8.60
2019-03-27T11:22:56.582Z,8.60
2019-03-27T11:25:26.796Z,8.70
2019-03-27T11:27:57.059Z,8.70
2019-03-27T11:30:38.533Z,8.70
2019-03-27T11:33:09.373Z,8.70
2019-03-27T11:35:41.019Z,8.80
2019-03-27T11:38:11.661Z,8.80
2019-03-27T11:40:41.853Z,8.80
2019-03-27T11:43:12.016Z,8.90
2019-03-27T11:45:42.192Z,8.90
2019-03-27T11:48:12.384Z,8.90
2019-03-27T11:50:45.334Z,9.00
2019-03-27T11:53:17.263Z,9.00
2019-03-27T11:55:47.434Z,9.10
2019-03-27T11:58:17.602Z,9.10
2019-03-27T12:00:54.909Z,9.20
2019-03-27T12:03:21.018Z,9.20
2019-03-27T12:05:51.260Z,9.20
2019-03-27T12:08:21.431Z,9.20
2019-03-27T12:10:51.605Z,9.30
2019-03-27T12:13:22.187Z,9.20
2019-03-27T12:15:52.443Z,9.30
2019-03-27T12:18:22.691Z,9.30
2019-03-27T12:20:59.412Z,9.20
2019-03-27T12:23:25.782Z,9.10
2019-03-27T12:25:55.952Z,9.10
2019-03-27T12:28:26.123Z,9.10
2019-03-27T12:30:56.520Z,9.10
2019-03-27T12:33:26.838Z,9.10
2019-03-27T12:35:57.119Z,9.10
2019-03-27T12:38:27.392Z,9.10
2019-03-27T12:40:57.586Z,9.00
2019-03-27T12:43:27.750Z,9.00
2019-03-27T12:45:58.115Z,9.00
2019-03-27T12:48:28.338Z,9.00
2019-03-27T12:51:11.742Z,9.00
2019-03-27T12:53:30.645Z,9.00
2019-03-27T12:56:00.835Z,9.00
2019-03-27T12:58:31.087Z,9.00
2019-03-27T13:01:01.277Z,9.00
2019-03-27T13:03:31.487Z,9.00
2019-03-27T13:06:01.719Z,9.00
2019-03-27T13:08:32.056Z,9.10
2019-03-27T13:11:02.391Z,9.10
2019-03-27T13:13:32.688Z,9.10
2019-03-27T13:16:03.019Z,9.20
2019-03-27T13:18:33.287Z,9.20
2019-03-27T13:21:03.532Z,9.20
2019-03-27T13:23:33.811Z,9.20
2019-03-27T13:26:04.091Z,9.20
2019-03-27T13:28:47.910Z,9.20
2019-03-27T13:31:06.303Z,9.20
2019-03-27T13:33:36.572Z,9.30
2019-03-27T13:36:07.909Z,9.20
2019-03-27T13:38:38.271Z,9.30
2019-03-27T13:41:08.434Z,9.30
2019-03-27T13:43:38.608Z,9.30
2019-03-27T13:46:08.766Z,9.30
2019-03-27T13:48:38.991Z,9.30
2019-03-27T13:51:09.172Z,9.30
2019-03-27T13:53:39.426Z,9.30
2019-03-27T13:56:09.641Z,9.20
2019-03-27T13:58:39.900Z,9.20
2019-03-27T14:01:12.803Z,9.20
2019-03-27T14:03:41.926Z,9.20
2019-03-27T14:06:12.090Z,9.20
2019-03-27T14:08:42.263Z,9.20
2019-03-27T14:11:12.504Z,9.20
2019-03-27T14:13:43.512Z,9.20
2019-03-27T14:16:13.893Z,9.20
2019-03-27T14:18:44.095Z,9.10
2019-03-27T14:21:14.343Z,9.10
2019-03-27T14:23:44.651Z,9.10
2019-03-27T14:26:14.916Z,9.00
2019-03-27T14:28:45.144Z,9.00
2019-03-27T14:31:15.406Z,8.90
2019-03-27T14:33:45.588Z,8.90
2019-03-27T14:36:15.775Z,8.90
2019-03-27T14:38:45.941Z,8.90
2019-03-27T14:41:16.151Z,8.90
2019-03-27T14:43:46.327Z,8.80
2019-03-27T14:46:16.520Z,8.80
2019-03-27T14:48:46.682Z,8.80
2019-03-27T14:51:19.361Z,8.80
2019-03-27T14:53:48.856Z,8.80
2019-03-27T14:56:19.023Z,8.70
2019-03-27T14:58:49.783Z,8.80
2019-03-27T15:01:20.170Z,8.70
2019-03-27T15:03:50.347Z,8.70
2019-03-27T15:06:20.752Z,8.80
2019-03-27T15:08:50.952Z,8.70
2019-03-27T15:11:21.293Z,8.80
2019-03-27T15:13:51.472Z,8.80
2019-03-27T15:16:21.740Z,8.80
2019-03-27T15:18:52.699Z,8.80
2019-03-27T15:21:23.087Z,8.70
2019-03-27T15:23:54.287Z,8.80
2019-03-27T15:26:24.496Z,8.80
2019-03-27T15:28:54.725Z,8.80
2019-03-27T15:31:24.947Z,8.70
2019-03-27T15:33:55.243Z,8.80
2019-03-27T15:36:25.433Z,8.70
2019-03-27T15:38:55.618Z,8.70
2019-03-27T15:41:25.894Z,8.70
2019-03-27T15:43:56.066Z,8.70
2019-03-27T15:46:26.311Z,8.70
2019-03-27T15:48:56.557Z,8.70
2019-03-27T15:51:26.987Z,8.70
2019-03-27T15:53:57.196Z,8.70
2019-03-27T15:56:27.543Z,8.70
2019-03-27T15:58:57.740Z,8.60
2019-03-27T16:01:28.123Z,8.60
2019-03-27T16:03:58.275Z,8.60
2019-03-27T16:06:28.483Z,8.60
2019-03-27T16:08:58.750Z,8.60
2019-03-27T16:11:28.950Z,8.60
2019-03-27T16:13:59.231Z,8.60
2019-03-27T16:16:29.489Z,8.60
2019-03-27T16:18:59.783Z,8.60
2019-03-27T16:21:30.104Z,8.60
2019-03-27T16:24:06.417Z,8.60
2019-03-27T16:26:32.292Z,8.60
2019-03-27T16:29:02.541Z,8.50
2019-03-27T16:31:32.799Z,8.50
2019-03-27T16:34:03.083Z,8.50
2019-03-27T16:36:33.284Z,8.50
2019-03-27T16:39:04.589Z,8.50
2019-03-27T16:41:35.338Z,8.50
2019-03-27T16:44:06.024Z,8.50
2019-03-27T16:46:36.382Z,8.40
2019-03-27T16:49:07.682Z,8.40
2019-03-27T16:51:37.891Z,8.40
2019-03-27T16:54:08.147Z,8.40
2019-03-27T16:56:38.323Z,8.40
2019-03-27T16:59:08.534Z,8.40
2019-03-27T17:01:38.718Z,8.40
2019-03-27T17:04:09.900Z,8.40
2019-03-27T17:06:40.126Z,8.40
2019-03-27T17:09:10.611Z,8.40
2019-03-27T17:11:40.967Z,8.40
2019-03-27T17:14:11.282Z,8.40
2019-03-27T17:16:41.531Z,8.30
2019-03-27T17:19:11.814Z,8.30
2019-03-27T17:21:41.985Z,8.30
2019-03-27T17:24:12.215Z,8.30
2019-03-27T17:26:43.552Z,8.20
2019-03-27T17:29:13.856Z,8.20
2019-03-27T17:31:44.100Z,8.20
2019-03-27T17:34:14.339Z,8.20
2019-03-27T17:36:44.541Z,8.20
2019-03-27T17:39:14.783Z,8.20
2019-03-27T17:41:44.972Z,8.20
2019-03-27T17:44:19.471Z,8.20
2019-03-27T17:46:50.340Z,8.20
2019-03-27T17:49:20.843Z,8.20
2019-03-27T17:51:51.112Z,8.20
2019-03-27T17:54:21.451Z,8.20
2019-03-27T17:56:51.739Z,8.20
2019-03-27T17:59:21.914Z,8.20
2019-03-27T18:01:52.171Z,8.20
2019-03-27T18:04:22.355Z,8.20
2019-03-27T18:06:52.616Z,8.20
2019-03-27T18:09:22.862Z,8.20
2019-03-27T18:11:53.352Z,8.20
2019-03-27T18:14:23.628Z,8.20
2019-03-27T18:16:53.815Z,8.20
2019-03-27T18:19:24.036Z,8.10
2019-03-27T18:22:07.074Z,8.10
2019-03-27T18:24:27.104Z,8.10
2019-03-27T18:26:57.283Z,8.10
2019-03-27T18:29:27.562Z,8.10
2019-03-27T18:31:57.763Z,8.10
2019-03-27T18:34:28.153Z,8.10
2019-03-27T18:36:58.520Z,8.10
2019-03-27T18:39:28.767Z,8.10
2019-03-27T18:41:59.008Z,8.10
2019-03-27T18:44:29.194Z,8.10
2019-03-27T18:46:59.370Z,8.10
2019-03-27T18:49:29.633Z,8.10
2019-03-27T18:51:59.876Z,8.00
2019-03-27T18:54:31.311Z,8.00
2019-03-27T18:57:01.547Z,8.00
2019-03-27T18:59:31.791Z,8.00
2019-03-27T19:02:02.294Z,8.00
2019-03-27T19:04:32.484Z,8.00
2019-03-27T19:07:02.744Z,8.00
2019-03-27T19:09:34.001Z,8.00
2019-03-27T19:12:04.280Z,8.00
2019-03-27T19:14:34.508Z,8.00
2019-03-27T19:17:05.466Z,8.00
2019-03-27T19:19:35.680Z,8.00
2019-03-27T19:22:05.994Z,8.00
2019-03-27T19:24:36.418Z,8.00
2019-03-27T19:27:06.693Z,8.00
2019-03-27T19:29:36.991Z,8.00
2019-03-27T19:32:07.172Z,8.00
2019-03-27T19:34:37.343Z,8.00
2019-03-27T19:37:07.519Z,8.00
2019-03-27T19:39:37.795Z,8.00
2019-03-27T19:42:08.048Z,8.00
2019-03-27T19:44:38.372Z,7.90
2019-03-27T19:47:08.720Z,7.90
2019-03-27T19:49:38.921Z,7.90
2019-03-27T19:52:09.240Z,7.90
2019-03-27T19:54:39.533Z,7.90
2019-03-27T19:57:10.755Z,7.90
2019-03-27T19:59:41.028Z,7.90
2019-03-27T20:02:11.548Z,7.90
2019-03-27T20:04:41.804Z,7.80
2019-03-27T20:07:12.017Z,7.90
2019-03-27T20:09:42.520Z,7.80
2019-03-27T20:12:12.720Z,7.90
2019-03-27T20:14:43.083Z,7.80
2019-03-27T20:17:14.540Z,7.90
2019-03-27T20:19:44.702Z,7.80
2019-03-27T20:22:14.928Z,7.80
2019-03-27T20:24:45.130Z,7.80
2019-03-27T20:27:15.356Z,7.80
2019-03-27T20:29:46.633Z,7.80
2019-03-27T20:32:17.119Z,7.80
2019-03-27T20:34:47.407Z,7.80
2019-03-27T20:37:17.697Z,7.80
2019-03-27T20:39:47.912Z,7.80
2019-03-27T20:42:18.116Z,7.80
2019-03-27T20:44:48.468Z,7.80
2019-03-27T20:47:18.660Z,7.80
2019-03-27T20:49:48.908Z,7.80
2019-03-27T20:52:19.153Z,7.80
2019-03-27T20:54:54.907Z,7.80
2019-03-27T20:57:21.280Z,7.80
2019-03-27T20:59:51.554Z,7.80
2019-03-27T21:02:21.866Z,7.80
2019-03-27T21:04:52.173Z,7.80
2019-03-27T21:07:24.551Z,7.80
2019-03-27T21:09:54.315Z,7.80
2019-03-27T21:12:24.611Z,7.80
2019-03-27T21:14:54.904Z,7.80
2019-03-27T21:17:25.150Z,7.80
2019-03-27T21:19:55.324Z,7.80
2019-03-27T21:22:25.532Z,7.80
2019-03-27T21:25:07.996Z,7.80
2019-03-27T21:27:27.735Z,7.80
2019-03-27T21:29:58.010Z,7.80
2019-03-27T21:32:28.211Z,7.80
2019-03-27T21:34:59.576Z,7.80
2019-03-27T21:37:29.752Z,7.80
2019-03-27T21:39:59.924Z,7.80
2019-03-27T21:42:30.100Z,7.80
2019-03-27T21:45:00.385Z,7.80
2019-03-27T21:47:30.844Z,7.80
2019-03-27T21:50:01.072Z,7.80
2019-03-27T21:52:31.408Z,7.80
2019-03-27T21:55:02.612Z,7.80
2019-03-27T21:57:33.904Z,7.80
2019-03-27T22:00:05.151Z,7.80
2019-03-27T22:02:35.387Z,7.80
2019-03-27T22:05:06.844Z,7.80
2019-03-27T22:07:37.000Z,7.80
2019-03-27T22:10:08.055Z,7.80
2019-03-27T22:12:38.750Z,7.80
2019-03-27T22:15:09.434Z,7.80
2019-03-27T22:17:39.616Z,7.80
2019-03-27T22:20:09.827Z,7.80
2019-03-27T22:22:39.986Z,7.80
2019-03-27T22:25:10.350Z,7.80
2019-03-27T22:27:40.546Z,7.80
2019-03-27T22:30:11.395Z,7.80
2019-03-27T22:32:41.571Z,7.80
2019-03-27T22:35:12.879Z,7.80
2019-03-27T22:37:43.128Z,7.80
2019-03-27T22:40:13.465Z,7.80
2019-03-27T22:42:43.661Z,7.80
2019-03-27T22:45:14.049Z,7.80
2019-03-27T22:47:44.249Z,7.80
2019-03-27T22:50:14.520Z,7.80
2019-03-27T22:52:44.694Z,7.80
2019-03-27T22:55:14.889Z,7.80
2019-03-27T22:57:45.079Z,7.80
2019-03-27T23:00:15.907Z,7.80
2019-03-27T23:02:47.707Z,7.80
2019-03-27T23:05:17.996Z,7.80
2019-03-27T23:07:48.162Z,7.80
2019-03-27T23:10:18.427Z,7.80
2019-03-27T23:12:48.590Z,7.80
2019-03-27T23:15:18.795Z,7.80
2019-03-27T23:17:50.045Z,7.80
2019-03-27T23:20:20.221Z,7.80
2019-03-27T23:22:50.441Z,7.80
2019-03-27T23:25:20.603Z,7.80
2019-03-27T23:27:50.798Z,7.80
2019-03-27T23:30:20.991Z,7.80
2019-03-27T23:32:51.252Z,7.80
2019-03-27T23:35:21.465Z,7.80
2019-03-27T23:37:51.736Z,7.80
2019-03-27T23:40:21.928Z,7.80
2019-03-27T23:42:52.102Z,7.80
2019-03-27T23:45:22.348Z,7.80
2019-03-27T23:47:52.524Z,7.80
2019-03-27T23:50:22.701Z,7.80
2019-03-27T23:52:52.892Z,7.80
2019-03-27T23:55:23.103Z,7.80
2019-03-27T23:57:53.555Z,7.80
